Time;durP1;ratioP1;P1;durP2;ratioP2;P2;SDS_P1;SDS_P2;PMS_P1;PMS_P2;Temp;Humidity;BMP_temperature;BMP_pressure;BME280_temperature;BME280_humidity;BME280_pressure;Samples;Min_cycle;Max_cycle;Signal;HPM_P1;HPM_P2
2022/07/28 00:00:04;;;;;;;;;;;;;;;;;;1033293;28;19916;-74
2022/07/28 00:00:34;;;;;;;;;;;;;;;;;;1033936;28;19925;-74
2022/07/28 00:01:05;;;;;;;;;;;;;;;;;;1033965;28;20413;-75
2022/07/28 00:01:35;;;;;;;;;;;;;;;;;;1030137;28;19944;-75
2022/07/28 00:02:05;;;;;;;;;;;;;;;;;;1029545;28;19945;-74
2022/07/28 00:02:36;;;;;;;;;;;;;;;;;;1033243;28;20356;-74
2022/07/28 00:03:06;;;;;;;;;;;;;;;;;;1033177;28;19909;-74
2022/07/28 00:03:36;;;;;;;;;;;;;;;;;;1029974;28;20429;-74
2022/07/28 00:04:07;;;;;;;;;;;;;;;;;;1025280;28;19910;-74
2022/07/28 00:04:37;;;;;;;;;;;;;;;;;;1027844;28;20008;-75
2022/07/28 00:05:07;;;;;;;;;;;;;;;;;;1028031;28;19914;-74
2022/07/28 00:05:38;;;;;;;;;;;;;;;;;;1032042;28;19910;-74
2022/07/28 00:06:08;;;;;;;;;;;;;;;;;;1029712;28;19968;-75
2022/07/28 00:06:38;;;;;;;;;;;;;;;;;;1029764;28;20055;-75
2022/07/28 00:07:09;;;;;;;;;;;;;;;;;;1029788;28;19909;-75
2022/07/28 00:07:39;;;;;;;;;;;;;;;;;;1030810;28;19960;-75
2022/07/28 00:08:10;;;;;;;;;;;;;;;;;;1029433;28;20289;-75
2022/07/28 00:08:41;;;;;;;;;;;;;;;;;;1029802;28;19960;-75
2022/07/28 00:09:11;;;;;;;;;;;;;;;;;;1033760;28;20428;-75
2022/07/28 00:09:41;;;;;;;;;;;;;;;;;;1033507;28;19916;-75
2022/07/28 00:10:12;;;;;;;;;;;;;;;;;;1033634;28;20268;-75
2022/07/28 00:10:42;;;;;;;;;;;;;;;;;;1033470;28;19913;-75
2022/07/28 00:11:12;;;;;;;;;;;;;;;;;;1033618;28;19910;-75
2022/07/28 00:11:42;;;;;;;;;;;;;;;;;;1033858;28;19936;-76
2022/07/28 00:12:13;;;;;;;;;;;;;;;;;;1033633;28;19921;-75
2022/07/28 00:12:43;;;;;;;;;;;;;;;;;;1033635;28;19918;-75
2022/07/28 00:13:13;;;;;;;;;;;;;;;;;;1033892;28;20012;-75
2022/07/28 00:13:44;;;;;;;;;;;;;;;;;;1033240;28;19914;-75
2022/07/28 00:14:14;;;;;;;;;;;;;;;;;;1034011;28;20377;-75
2022/07/28 00:14:44;;;;;;;;;;;;;;;;;;1034052;28;19916;-74
2022/07/28 00:15:15;;;;;;;;;;;;;;;;;;1034133;28;20523;-74
2022/07/28 00:15:45;;;;;;;;;;;;;;;;;;1033996;28;19932;-74
2022/07/28 00:16:15;;;;;;;;;;;;;;;;;;1032933;28;19918;-74
2022/07/28 00:16:45;;;;;;;;;;;;;;;;;;1030092;28;19910;-75
2022/07/28 00:17:16;;;;;;;;;;;;;;;;;;1030230;28;19916;-75
2022/07/28 00:17:46;;;;;;;;;;;;;;;;;;1030135;28;20016;-74
2022/07/28 00:18:17;;;;;;;;;;;;;;;;;;1029557;28;20047;-74
2022/07/28 00:18:47;;;;;;;;;;;;;;;;;;1030284;28;20000;-75
2022/07/28 00:19:17;;;;;;;;;;;;;;;;;;1034208;28;19914;-74
2022/07/28 00:19:47;;;;;;;;;;;;;;;;;;1034189;28;19916;-75
2022/07/28 00:20:18;;;;;;;;;;;;;;;;;;1033799;28;20095;-75
2022/07/28 00:20:48;;;;;;;;;;;;;;;;;;1033419;28;19910;-75
2022/07/28 00:21:18;;;;;;;;;;;;;;;;;;1034130;28;19909;-75
2022/07/28 00:21:49;;;;;;;;;;;;;;;;;;1029864;28;19913;-74
2022/07/28 00:22:19;;;;;;;;;;;;;;;;;;1029612;28;20056;-74
2022/07/28 00:22:49;;;;;;;;;;;;;;;;;;1030117;28;19972;-74
2022/07/28 00:23:19;;;;;;;;;;;;;;;;;;1029986;28;19913;-74
2022/07/28 00:23:50;;;;;;;;;;;;;;;;;;1033341;28;19937;-75
2022/07/28 00:24:22;;;;;;;;;;;;;;;;;;1034059;28;19917;-75
2022/07/28 00:24:52;;;;;;;;;;;;;;;;;;1034023;28;19909;-75
2022/07/28 00:25:22;;;;;;;;;;;;;;;;;;1034084;28;20025;-74
2022/07/28 00:25:52;;;;;;;;;;;;;;;;;;1033764;28;20025;-74
2022/07/28 00:26:23;;;;;;;;;;;;;;;;;;1029523;28;19925;-75
2022/07/28 00:26:53;;;;;;;;;;;;;;;;;;1033755;28;19920;-75
2022/07/28 00:27:23;;;;;;;;;;;;;;;;;;1034023;28;19909;-75
2022/07/28 00:27:54;;;;;;;;;;;;;;;;;;1034285;28;19917;-75
2022/07/28 00:28:24;;;;;;;;;;;;;;;;;;1033356;28;20950;-74
2022/07/28 00:28:54;;;;;;;;;;;;;;;;;;1033864;28;19910;-74
2022/07/28 00:29:25;;;;;;;;;;;;;;;;;;1033307;28;20000;-74
2022/07/28 00:29:56;;;;;;;;;;;;;;;;;;1034149;28;19909;-75
2022/07/28 00:30:26;;;;;;;;;;;;;;;;;;1033782;28;20012;-75
2022/07/28 00:30:56;;;;;;;;;;;;;;;;;;1030267;28;21740;-75
2022/07/28 00:31:27;;;;;;;;;;;;;;;;;;1033854;28;20099;-75
2022/07/28 00:31:57;;;;;;;;;;;;;;;;;;1033441;28;20369;-75
2022/07/28 00:32:27;;;;;;;;;;;;;;;;;;1033614;28;19905;-75
2022/07/28 00:32:57;;;;;;;;;;;;;;;;;;1034046;28;19917;-75
2022/07/28 00:33:28;;;;;;;;;;;;;;;;;;1034172;28;20258;-75
2022/07/28 00:33:58;;;;;;;;;;;;;;;;;;1033964;28;19956;-75
2022/07/28 00:34:28;;;;;;;;;;;;;;;;;;1033767;28;19910;-75
2022/07/28 00:34:59;;;;;;;;;;;;;;;;;;1033436;28;19913;-75
2022/07/28 00:35:29;;;;;;;;;;;;;;;;;;1034106;28;20427;-75
2022/07/28 00:35:59;;;;;;;;;;;;;;;;;;1029614;28;19909;-75
2022/07/28 00:36:30;;;;;;;;;;;;;;;;;;1029930;28;19993;-75
2022/07/28 00:37:00;;;;;;;;;;;;;;;;;;1030114;28;19910;-75
2022/07/28 00:37:30;;;;;;;;;;;;;;;;;;1030322;28;19909;-75
2022/07/28 00:38:01;;;;;;;;;;;;;;;;;;1034014;28;19910;-75
2022/07/28 00:38:31;;;;;;;;;;;;;;;;;;1033813;28;19909;-75
2022/07/28 00:39:01;;;;;;;;;;;;;;;;;;1033699;28;20083;-75
2022/07/28 00:39:32;;;;;;;;;;;;;;;;;;1033578;28;20397;-75
2022/07/28 00:40:02;;;;;;;;;;;;;;;;;;1033820;28;19973;-75
2022/07/28 00:41:21;;;;;;;;;;;;;;;;;;1031347;28;19926;-75
2022/07/28 00:41:52;;;;;;;;;;;;;;;;;;1032817;28;19906;-75
2022/07/28 00:42:22;;;;;;;;;;;;;;;;;;1033435;28;19913;-75
2022/07/28 00:42:52;;;;;;;;;;;;;;;;;;1033515;28;19910;-75
2022/07/28 00:43:22;;;;;;;;;;;;;;;;;;1023459;28;19927;-75
2022/07/28 00:43:53;;;;;;;;;;;;;;;;;;1029418;28;20004;-75
2022/07/28 00:44:23;;;;;;;;;;;;;;;;;;1025396;28;19915;-75
2022/07/28 00:44:53;;;;;;;;;;;;;;;;;;1026069;28;19925;-75
2022/07/28 00:45:24;;;;;;;;;;;;;;;;;;1029981;28;19914;-75
2022/07/28 00:45:54;;;;;;;;;;;;;;;;;;1030115;28;19910;-75
2022/07/28 00:46:24;;;;;;;;;;;;;;;;;;1031662;28;19913;-75
2022/07/28 00:46:54;;;;;;;;;;;;;;;;;;1034368;28;19909;-75
2022/07/28 00:47:25;;;;;;;;;;;;;;;;;;1034002;28;19913;-75
2022/07/28 00:47:55;;;;;;;;;;;;;;;;;;1033597;28;19915;-75
2022/07/28 00:48:25;;;;;;;;;;;;;;;;;;1033552;28;20004;-75
2022/07/28 00:48:55;;;;;;;;;;;;;;;;;;1034022;28;19910;-75
2022/07/28 00:49:26;;;;;;;;;;;;;;;;;;1033647;28;20380;-75
2022/07/28 00:49:56;;;;;;;;;;;;;;;;;;1032881;28;19957;-75
2022/07/28 00:50:26;;;;;;;;;;;;;;;;;;1033963;28;19916;-75
2022/07/28 00:50:57;;;;;;;;;;;;;;;;;;1034049;28;21074;-75
2022/07/28 00:51:27;;;;;;;;;;;;;;;;;;1033943;28;19959;-75
2022/07/28 00:51:57;;;;;;;;;;;;;;;;;;1033464;28;19909;-74
2022/07/28 00:52:28;;;;;;;;;;;;;;;;;;1033580;28;19978;-75
2022/07/28 00:52:58;;;;;;;;;;;;;;;;;;1033320;28;19910;-75
2022/07/28 00:53:28;;;;;;;;;;;;;;;;;;1033542;28;19910;-75
2022/07/28 00:53:58;;;;;;;;;;;;;;;;;;1029858;28;19933;-75
2022/07/28 00:54:29;;;;;;;;;;;;;;;;;;1033755;28;19916;-75
2022/07/28 00:54:59;;;;;;;;;;;;;;;;;;1033109;28;19914;-75
2022/07/28 00:55:29;;;;;;;;;;;;;;;;;;1033891;28;19960;-75
2022/07/28 00:55:59;;;;;;;;;;;;;;;;;;1033111;28;20353;-74
2022/07/28 00:56:30;;;;;;;;;;;;;;;;;;1033507;28;20032;-75
2022/07/28 00:57:00;;;;;;;;;;;;;;;;;;1029722;28;20001;-75
2022/07/28 00:57:30;;;;;;;;;;;;;;;;;;1026003;28;19916;-75
2022/07/28 00:58:01;;;;;;;;;;;;;;;;;;1028870;28;19968;-75
2022/07/28 00:58:31;;;;;;;;;;;;;;;;;;1029232;28;19910;-75
2022/07/28 00:59:01;;;;;;;;;;;;;;;;;;1027962;28;19945;-75
2022/07/28 00:59:31;;;;;;;;;;;;;;;;;;1032767;28;19910;-75
2022/07/28 01:00:02;;;;;;;;;;;;;;;;;;1032902;28;19917;-75
2022/07/28 01:00:32;;;;;;;;;;;;;;;;;;1033445;28;19909;-75
2022/07/28 01:01:03;;;;;;;;;;;;;;;;;;1033653;28;20406;-75
2022/07/28 01:01:33;;;;;;;;;;;;;;;;;;1033993;28;19941;-75
2022/07/28 01:02:04;;;;;;;;;;;;;;;;;;1034021;28;19996;-75
2022/07/28 01:02:34;;;;;;;;;;;;;;;;;;1032988;28;20020;-75
2022/07/28 01:03:04;;;;;;;;;;;;;;;;;;1033622;28;19960;-75
2022/07/28 01:03:34;;;;;;;;;;;;;;;;;;1033698;28;19913;-75
2022/07/28 01:04:05;;;;;;;;;;;;;;;;;;1033607;28;19932;-75
2022/07/28 01:04:35;;;;;;;;;;;;;;;;;;1033577;28;19999;-75
2022/07/28 01:05:05;;;;;;;;;;;;;;;;;;1033709;28;20384;-75
2022/07/28 01:05:35;;;;;;;;;;;;;;;;;;1033933;28;19916;-75
2022/07/28 01:06:06;;;;;;;;;;;;;;;;;;1029818;28;20009;-75
2022/07/28 01:06:36;;;;;;;;;;;;;;;;;;1030285;28;19968;-74
2022/07/28 01:07:06;;;;;;;;;;;;;;;;;;1030108;28;20476;-75
2022/07/28 01:07:37;;;;;;;;;;;;;;;;;;1033423;28;19960;-75
2022/07/28 01:08:07;;;;;;;;;;;;;;;;;;1033190;28;19960;-75
2022/07/28 01:08:37;;;;;;;;;;;;;;;;;;1033667;28;19909;-75
2022/07/28 01:09:08;;;;;;;;;;;;;;;;;;1033467;28;19968;-75
2022/07/28 01:09:38;;;;;;;;;;;;;;;;;;1033756;28;20282;-75
2022/07/28 01:10:08;;;;;;;;;;;;;;;;;;1029844;28;19916;-74
2022/07/28 01:10:38;;;;;;;;;;;;;;;;;;1028821;28;19920;-75
2022/07/28 01:11:09;;;;;;;;;;;;;;;;;;1029852;28;20433;-75
2022/07/28 01:11:39;;;;;;;;;;;;;;;;;;1034009;28;19959;-75
2022/07/28 01:12:09;;;;;;;;;;;;;;;;;;1033904;28;19909;-74
2022/07/28 01:12:40;;;;;;;;;;;;;;;;;;1034498;28;20064;-74
2022/07/28 01:13:10;;;;;;;;;;;;;;;;;;1034165;28;20043;-74
2022/07/28 01:13:40;;;;;;;;;;;;;;;;;;1034158;28;19910;-75
2022/07/28 01:14:10;;;;;;;;;;;;;;;;;;1034550;28;19909;-75
2022/07/28 01:14:41;;;;;;;;;;;;;;;;;;1034642;28;19917;-75
2022/07/28 01:15:11;;;;;;;;;;;;;;;;;;1030763;28;19976;-75
2022/07/28 01:15:42;;;;;;;;;;;;;;;;;;1030148;28;19917;-75
2022/07/28 01:16:12;;;;;;;;;;;;;;;;;;1026528;28;19910;-75
2022/07/28 01:16:43;;;;;;;;;;;;;;;;;;1030767;28;20402;-75
2022/07/28 01:17:14;;;;;;;;;;;;;;;;;;1030297;28;20377;-75
2022/07/28 01:17:44;;;;;;;;;;;;;;;;;;1030361;28;19910;-75
2022/07/28 01:18:14;;;;;;;;;;;;;;;;;;1034294;28;19918;-75
2022/07/28 01:18:45;;;;;;;;;;;;;;;;;;1034716;28;20050;-75
2022/07/28 01:19:15;;;;;;;;;;;;;;;;;;1034674;28;20004;-75
2022/07/28 01:19:45;;;;;;;;;;;;;;;;;;1034597;28;20008;-75
2022/07/28 01:20:16;;;;;;;;;;;;;;;;;;1034148;28;19953;-75
2022/07/28 01:20:46;;;;;;;;;;;;;;;;;;1034229;28;19944;-75
2022/07/28 01:21:17;;;;;;;;;;;;;;;;;;1034541;28;19910;-76
2022/07/28 01:21:47;;;;;;;;;;;;;;;;;;1035192;28;19909;-76
2022/07/28 01:22:17;;;;;;;;;;;;;;;;;;1034525;28;20393;-75
2022/07/28 01:22:48;;;;;;;;;;;;;;;;;;1034449;28;19925;-75
2022/07/28 01:23:18;;;;;;;;;;;;;;;;;;1034770;28;19936;-75
2022/07/28 01:23:49;;;;;;;;;;;;;;;;;;1026604;28;19917;-75
2022/07/28 01:24:19;;;;;;;;;;;;;;;;;;1026538;28;19909;-75
2022/07/28 01:24:50;;;;;;;;;;;;;;;;;;1024676;28;19915;-75
2022/07/28 01:25:20;;;;;;;;;;;;;;;;;;1028489;28;19910;-75
2022/07/28 01:25:51;;;;;;;;;;;;;;;;;;1028530;28;20001;-75
2022/07/28 01:26:21;;;;;;;;;;;;;;;;;;1028642;28;19914;-75
2022/07/28 01:26:51;;;;;;;;;;;;;;;;;;1026513;28;19916;-75
2022/07/28 01:27:22;;;;;;;;;;;;;;;;;;1026446;28;20406;-75
2022/07/28 01:27:52;;;;;;;;;;;;;;;;;;1029915;28;19913;-75
2022/07/28 01:28:22;;;;;;;;;;;;;;;;;;1030102;28;19914;-75
2022/07/28 01:28:53;;;;;;;;;;;;;;;;;;1030732;28;19913;-75
2022/07/28 01:29:23;;;;;;;;;;;;;;;;;;1033679;28;19913;-75
2022/07/28 01:29:53;;;;;;;;;;;;;;;;;;1030638;28;19910;-74
2022/07/28 01:30:24;;;;;;;;;;;;;;;;;;1026525;28;19918;-75
2022/07/28 01:30:54;;;;;;;;;;;;;;;;;;1026780;28;19917;-75
2022/07/28 01:31:24;;;;;;;;;;;;;;;;;;1026288;28;19965;-75
2022/07/28 01:31:55;;;;;;;;;;;;;;;;;;1030192;28;19913;-75
2022/07/28 01:32:25;;;;;;;;;;;;;;;;;;1029994;28;20302;-75
2022/07/28 01:32:55;;;;;;;;;;;;;;;;;;1030845;28;20000;-75
2022/07/28 01:33:25;;;;;;;;;;;;;;;;;;1034617;28;20404;-75
2022/07/28 01:33:56;;;;;;;;;;;;;;;;;;1034579;28;19992;-75
2022/07/28 01:34:26;;;;;;;;;;;;;;;;;;1034083;28;20011;-75
2022/07/28 01:34:56;;;;;;;;;;;;;;;;;;1034166;28;19967;-75
2022/07/28 01:35:27;;;;;;;;;;;;;;;;;;1030319;28;19914;-76
2022/07/28 01:35:57;;;;;;;;;;;;;;;;;;1030526;28;20381;-75
2022/07/28 01:36:27;;;;;;;;;;;;;;;;;;1034395;28;19979;-75
2022/07/28 01:36:57;;;;;;;;;;;;;;;;;;1030800;28;19932;-75
2022/07/28 01:37:28;;;;;;;;;;;;;;;;;;1030318;28;19941;-74
2022/07/28 01:37:58;;;;;;;;;;;;;;;;;;1034050;28;19949;-74
2022/07/28 01:38:29;;;;;;;;;;;;;;;;;;1034474;28;19910;-75
2022/07/28 01:38:59;;;;;;;;;;;;;;;;;;1033859;28;19916;-75
2022/07/28 01:39:29;;;;;;;;;;;;;;;;;;1033765;28;19909;-75
2022/07/28 01:39:59;;;;;;;;;;;;;;;;;;1034232;28;19917;-75
2022/07/28 01:40:30;;;;;;;;;;;;;;;;;;1029522;28;19968;-74
2022/07/28 01:41:00;;;;;;;;;;;;;;;;;;1030199;28;19910;-75
2022/07/28 01:41:30;;;;;;;;;;;;;;;;;;1029123;28;19918;-75
2022/07/28 01:42:01;;;;;;;;;;;;;;;;;;1033031;28;19933;-75
2022/07/28 01:42:31;;;;;;;;;;;;;;;;;;1034575;28;20008;-75
2022/07/28 01:43:01;;;;;;;;;;;;;;;;;;1030506;28;19968;-73
2022/07/28 01:43:32;;;;;;;;;;;;;;;;;;1027536;28;20365;-76
2022/07/28 01:44:02;;;;;;;;;;;;;;;;;;1028406;28;20406;-74
2022/07/28 01:44:32;;;;;;;;;;;;;;;;;;1027957;28;20242;-74
2022/07/28 01:45:03;;;;;;;;;;;;;;;;;;1032421;28;19977;-75
2022/07/28 01:45:34;;;;;;;;;;;;;;;;;;1034131;28;20385;-74
2022/07/28 01:46:04;;;;;;;;;;;;;;;;;;1030276;28;20368;-75
2022/07/28 01:46:34;;;;;;;;;;;;;;;;;;1030648;28;19910;-75
2022/07/28 01:47:06;;;;;;;;;;;;;;;;;;1030990;28;19965;-76
2022/07/28 01:47:36;;;;;;;;;;;;;;;;;;1034909;28;20364;-75
2022/07/28 01:48:07;;;;;;;;;;;;;;;;;;1034796;28;19913;-75
2022/07/28 01:48:38;;;;;;;;;;;;;;;;;;1034434;28;19960;-74
2022/07/28 01:49:09;;;;;;;;;;;;;;;;;;1034199;28;19920;-75
2022/07/28 01:49:39;;;;;;;;;;;;;;;;;;1033998;28;19941;-74
2022/07/28 01:50:10;;;;;;;;;;;;;;;;;;1034461;28;19909;-74
2022/07/28 01:50:40;;;;;;;;;;;;;;;;;;1034607;28;19956;-74
2022/07/28 01:51:11;;;;;;;;;;;;;;;;;;1025396;28;19910;-75
2022/07/28 01:51:41;;;;;;;;;;;;;;;;;;1026214;28;19910;-75
2022/07/28 01:52:11;;;;;;;;;;;;;;;;;;1028713;28;19914;-75
2022/07/28 01:52:42;;;;;;;;;;;;;;;;;;1030013;28;20442;-74
2022/07/28 01:53:12;;;;;;;;;;;;;;;;;;1034165;28;19910;-74
2022/07/28 01:53:42;;;;;;;;;;;;;;;;;;1033692;28;19996;-75
2022/07/28 01:54:12;;;;;;;;;;;;;;;;;;1028967;28;19949;-74
2022/07/28 01:54:43;;;;;;;;;;;;;;;;;;1030758;28;19914;-75
2022/07/28 01:55:13;;;;;;;;;;;;;;;;;;1030703;28;20328;-75
2022/07/28 01:55:43;;;;;;;;;;;;;;;;;;1030596;28;20305;-74
2022/07/28 01:56:14;;;;;;;;;;;;;;;;;;1030714;28;19913;-74
2022/07/28 01:56:44;;;;;;;;;;;;;;;;;;1030928;28;19916;-74
2022/07/28 01:57:15;;;;;;;;;;;;;;;;;;1030516;28;19910;-74
2022/07/28 01:57:45;;;;;;;;;;;;;;;;;;1028447;28;21500;-74
2022/07/28 01:58:15;;;;;;;;;;;;;;;;;;1030977;28;20348;-75
2022/07/28 01:58:46;;;;;;;;;;;;;;;;;;1029755;28;20025;-73
2022/07/28 01:59:16;;;;;;;;;;;;;;;;;;1034049;28;19929;-74
2022/07/28 01:59:46;;;;;;;;;;;;;;;;;;1032962;28;20286;-75
2022/07/28 02:00:17;;;;;;;;;;;;;;;;;;1034584;28;20044;-74
2022/07/28 02:00:48;;;;;;;;;;;;;;;;;;1033721;28;19921;-74
2022/07/28 02:01:18;;;;;;;;;;;;;;;;;;1034613;28;20026;-73
2022/07/28 02:01:49;;;;;;;;;;;;;;;;;;1025442;28;19994;-75
2022/07/28 02:02:20;;;;;;;;;;;;;;;;;;1024161;28;19910;-74
2022/07/28 02:02:50;;;;;;;;;;;;;;;;;;1027863;28;19957;-75
2022/07/28 02:03:20;;;;;;;;;;;;;;;;;;1027905;28;20382;-74
2022/07/28 02:03:50;;;;;;;;;;;;;;;;;;1030014;28;19917;-74
2022/07/28 02:04:21;;;;;;;;;;;;;;;;;;1034087;28;19909;-74
2022/07/28 02:04:51;;;;;;;;;;;;;;;;;;1033103;28;19920;-74
2022/07/28 02:05:21;;;;;;;;;;;;;;;;;;1034351;28;19934;-74
2022/07/28 02:05:52;;;;;;;;;;;;;;;;;;1033951;28;19913;-74
2022/07/28 02:06:22;;;;;;;;;;;;;;;;;;1033386;28;19909;-73
2022/07/28 02:06:52;;;;;;;;;;;;;;;;;;1029652;28;20319;-76
2022/07/28 02:07:23;;;;;;;;;;;;;;;;;;1035029;28;19964;-74
2022/07/28 02:07:53;;;;;;;;;;;;;;;;;;1033954;28;20381;-75
2022/07/28 02:08:23;;;;;;;;;;;;;;;;;;1033902;28;19913;-75
2022/07/28 02:08:56;;;;;;;;;;;;;;;;;;1033407;28;19932;-73
2022/07/28 02:09:27;;;;;;;;;;;;;;;;;;1032670;28;20023;-72
2022/07/28 02:09:57;;;;;;;;;;;;;;;;;;1025702;28;19911;-73
2022/07/28 02:10:27;;;;;;;;;;;;;;;;;;1026962;28;19910;-74
2022/07/28 02:11:47;;;;;;;;;;;;;;;;;;1031756;28;19914;-75
2022/07/28 02:12:18;;;;;;;;;;;;;;;;;;1034616;28;20007;-73
2022/07/28 02:12:48;;;;;;;;;;;;;;;;;;1031692;28;19909;-74
2022/07/28 02:13:19;;;;;;;;;;;;;;;;;;1025292;28;19914;-74
2022/07/28 02:13:49;;;;;;;;;;;;;;;;;;1025792;28;20306;-77
2022/07/28 02:14:19;;;;;;;;;;;;;;;;;;1026371;28;19921;-72
2022/07/28 02:14:50;;;;;;;;;;;;;;;;;;1020396;28;19953;-73
2022/07/28 02:15:20;;;;;;;;;;;;;;;;;;1031673;28;19914;-74
2022/07/28 02:15:50;;;;;;;;;;;;;;;;;;1032159;28;19920;-73
2022/07/28 02:16:21;;;;;;;;;;;;;;;;;;1032977;28;20423;-75
2022/07/28 02:16:51;;;;;;;;;;;;;;;;;;1034491;28;20344;-74
2022/07/28 02:17:21;;;;;;;;;;;;;;;;;;1030945;28;20385;-74
2022/07/28 02:17:52;;;;;;;;;;;;;;;;;;1033003;28;20397;-73
2022/07/28 02:18:22;;;;;;;;;;;;;;;;;;1034106;28;19913;-74
2022/07/28 02:18:53;;;;;;;;;;;;;;;;;;1025613;28;19910;-74
2022/07/28 02:19:23;;;;;;;;;;;;;;;;;;1025855;28;20322;-72
2022/07/28 02:19:53;;;;;;;;;;;;;;;;;;1026480;28;19914;-73
2022/07/28 02:20:23;;;;;;;;;;;;;;;;;;1030401;28;19917;-72
2022/07/28 02:20:54;;;;;;;;;;;;;;;;;;1030350;28;19910;-75
2022/07/28 02:21:24;;;;;;;;;;;;;;;;;;1034808;28;19909;-74
2022/07/28 02:21:55;;;;;;;;;;;;;;;;;;1034148;28;19957;-74
2022/07/28 02:22:25;;;;;;;;;;;;;;;;;;1033818;28;19948;-73
2022/07/28 02:22:55;;;;;;;;;;;;;;;;;;1034030;28;19909;-75
2022/07/28 02:23:25;;;;;;;;;;;;;;;;;;1033251;28;20370;-73
2022/07/28 02:23:56;;;;;;;;;;;;;;;;;;1032692;28;19949;-73
2022/07/28 02:24:26;;;;;;;;;;;;;;;;;;1029733;28;19924;-74
2022/07/28 02:24:56;;;;;;;;;;;;;;;;;;1030021;28;20329;-74
2022/07/28 02:25:27;;;;;;;;;;;;;;;;;;1029527;28;19925;-74
2022/07/28 02:25:57;;;;;;;;;;;;;;;;;;1033020;28;19967;-73
2022/07/28 02:26:27;;;;;;;;;;;;;;;;;;1032875;28;19910;-74
2022/07/28 02:26:58;;;;;;;;;;;;;;;;;;1033168;28;19914;-74
2022/07/28 02:27:28;;;;;;;;;;;;;;;;;;1033094;28;20043;-74
2022/07/28 02:27:58;;;;;;;;;;;;;;;;;;1031387;28;19932;-74
2022/07/28 02:28:29;;;;;;;;;;;;;;;;;;1027933;28;20005;-73
2022/07/28 02:28:59;;;;;;;;;;;;;;;;;;1029868;28;19914;-74
2022/07/28 02:29:29;;;;;;;;;;;;;;;;;;1033608;28;20401;-75
2022/07/28 02:30:00;;;;;;;;;;;;;;;;;;1029960;28;19983;-73
2022/07/28 02:30:30;;;;;;;;;;;;;;;;;;1028932;28;19917;-74
2022/07/28 02:31:00;;;;;;;;;;;;;;;;;;1031121;28;19914;-73
2022/07/28 02:31:31;;;;;;;;;;;;;;;;;;1030009;28;19910;-74
2022/07/28 02:32:01;;;;;;;;;;;;;;;;;;1031011;28;19949;-74
2022/07/28 02:32:31;;;;;;;;;;;;;;;;;;1034330;28;20289;-73
2022/07/28 02:33:02;;;;;;;;;;;;;;;;;;1030910;28;19914;-74
2022/07/28 02:33:32;;;;;;;;;;;;;;;;;;1026878;28;20333;-73
2022/07/28 02:34:02;;;;;;;;;;;;;;;;;;1027005;28;20360;-74
2022/07/28 02:34:33;;;;;;;;;;;;;;;;;;1026569;28;19958;-74
2022/07/28 02:35:03;;;;;;;;;;;;;;;;;;1028749;28;20009;-75
2022/07/28 02:35:33;;;;;;;;;;;;;;;;;;1029084;28;19917;-75
2022/07/28 02:36:04;;;;;;;;;;;;;;;;;;1028612;28;19910;-75
2022/07/28 02:36:34;;;;;;;;;;;;;;;;;;1028729;28;19914;-73
2022/07/28 02:37:05;;;;;;;;;;;;;;;;;;1034066;28;19920;-73
2022/07/28 02:37:35;;;;;;;;;;;;;;;;;;1032820;28;19910;-75
2022/07/28 02:38:06;;;;;;;;;;;;;;;;;;1033283;28;19913;-74
2022/07/28 02:38:36;;;;;;;;;;;;;;;;;;1032527;28;19956;-74
2022/07/28 02:39:06;;;;;;;;;;;;;;;;;;1033440;28;20289;-74
2022/07/28 02:39:37;;;;;;;;;;;;;;;;;;1033275;28;19913;-74
2022/07/28 02:40:07;;;;;;;;;;;;;;;;;;1033431;28;20289;-74
2022/07/28 02:40:37;;;;;;;;;;;;;;;;;;1033676;28;19972;-73
2022/07/28 02:41:08;;;;;;;;;;;;;;;;;;1034809;28;19913;-74
2022/07/28 02:41:38;;;;;;;;;;;;;;;;;;1034098;28;19913;-73
2022/07/28 02:42:09;;;;;;;;;;;;;;;;;;1033260;28;19917;-73
2022/07/28 02:42:40;;;;;;;;;;;;;;;;;;1030640;28;19932;-75
2022/07/28 02:43:10;;;;;;;;;;;;;;;;;;1029988;28;20436;-72
2022/07/28 02:43:40;;;;;;;;;;;;;;;;;;1033181;28;19916;-73
2022/07/28 02:44:10;;;;;;;;;;;;;;;;;;1033120;28;20370;-73
2022/07/28 02:44:41;;;;;;;;;;;;;;;;;;1029799;28;20381;-72
2022/07/28 02:45:11;;;;;;;;;;;;;;;;;;1030266;28;19910;-73
2022/07/28 02:45:42;;;;;;;;;;;;;;;;;;1029964;28;20008;-72
2022/07/28 02:46:12;;;;;;;;;;;;;;;;;;1029831;28;19910;-73
2022/07/28 02:46:42;;;;;;;;;;;;;;;;;;1033782;28;20457;-73
2022/07/28 02:47:13;;;;;;;;;;;;;;;;;;1034016;28;20479;-73
2022/07/28 02:47:43;;;;;;;;;;;;;;;;;;1033933;28;20620;-74
2022/07/28 02:48:13;;;;;;;;;;;;;;;;;;1033946;28;19944;-73
2022/07/28 02:48:44;;;;;;;;;;;;;;;;;;1034282;28;19910;-73
2022/07/28 02:49:14;;;;;;;;;;;;;;;;;;1035178;28;19951;-74
2022/07/28 02:49:44;;;;;;;;;;;;;;;;;;1029183;28;19918;-73
2022/07/28 02:50:14;;;;;;;;;;;;;;;;;;1026125;28;19990;-74
2022/07/28 02:50:45;;;;;;;;;;;;;;;;;;1026714;28;20367;-74
2022/07/28 02:51:15;;;;;;;;;;;;;;;;;;1027169;28;20008;-74
2022/07/28 02:51:45;;;;;;;;;;;;;;;;;;1028054;28;19910;-74
2022/07/28 02:52:16;;;;;;;;;;;;;;;;;;1031929;28;19909;-74
2022/07/28 02:52:46;;;;;;;;;;;;;;;;;;1032841;28;19963;-73
2022/07/28 02:53:16;;;;;;;;;;;;;;;;;;1034580;28;19916;-74
2022/07/28 02:53:47;;;;;;;;;;;;;;;;;;1033841;28;20304;-74
2022/07/28 02:54:20;;;;;;;;;;;;;;;;;;1033220;28;19967;-75
2022/07/28 02:54:51;;;;;;;;;;;;;;;;;;1025850;28;20005;-75
2022/07/28 02:55:21;;;;;;;;;;;;;;;;;;1025707;28;19917;-75
2022/07/28 02:55:51;;;;;;;;;;;;;;;;;;1025910;28;19917;-74
2022/07/28 02:56:22;;;;;;;;;;;;;;;;;;1026092;28;20005;-74
2022/07/28 02:56:52;;;;;;;;;;;;;;;;;;1030108;28;19905;-73
2022/07/28 02:57:22;;;;;;;;;;;;;;;;;;1034105;28;19960;-74
2022/07/28 02:57:53;;;;;;;;;;;;;;;;;;1033826;28;19964;-74
2022/07/28 02:58:23;;;;;;;;;;;;;;;;;;1033392;28;19978;-73
2022/07/28 02:58:53;;;;;;;;;;;;;;;;;;1034002;28;19918;-73
2022/07/28 02:59:23;;;;;;;;;;;;;;;;;;1033770;28;19916;-73
2022/07/28 02:59:54;;;;;;;;;;;;;;;;;;1034000;28;20028;-74
2022/07/28 03:00:24;;;;;;;;;;;;;;;;;;1032802;28;20003;-74
2022/07/28 03:00:55;;;;;;;;;;;;;;;;;;1034695;28;20012;-74
2022/07/28 03:01:25;;;;;;;;;;;;;;;;;;1033095;28;19910;-74
2022/07/28 03:01:58;;;;;;;;;;;;;;;;;;1034595;28;19909;-74
2022/07/28 03:02:29;;;;;;;;;;;;;;;;;;1033285;28;20008;-73
2022/07/28 03:03:00;;;;;;;;;;;;;;;;;;1033485;28;19910;-73
2022/07/28 03:03:30;;;;;;;;;;;;;;;;;;1034032;28;20286;-74
2022/07/28 03:04:00;;;;;;;;;;;;;;;;;;1034111;28;19910;-74
2022/07/28 03:05:40;;;;;;;;;;;;;;;;;;1033126;28;19916;-73
2022/07/28 03:06:10;;;;;;;;;;;;;;;;;;1031699;28;20476;-73
2022/07/28 03:06:41;;;;;;;;;;;;;;;;;;1029855;28;20327;-74
2022/07/28 03:07:11;;;;;;;;;;;;;;;;;;1029935;28;19935;-71
2022/07/28 03:07:41;;;;;;;;;;;;;;;;;;1029848;28;19917;-73
2022/07/28 03:08:12;;;;;;;;;;;;;;;;;;1029936;28;19909;-74
2022/07/28 03:08:42;;;;;;;;;;;;;;;;;;1032329;28;19917;-75
2022/07/28 03:09:12;;;;;;;;;;;;;;;;;;1034097;28;19909;-74
2022/07/28 03:09:42;;;;;;;;;;;;;;;;;;1029487;28;19910;-74
2022/07/28 03:10:13;;;;;;;;;;;;;;;;;;1025193;28;19914;-74
2022/07/28 03:10:43;;;;;;;;;;;;;;;;;;1028829;28;19914;-75
2022/07/28 03:11:13;;;;;;;;;;;;;;;;;;1029879;28;19917;-74
2022/07/28 03:11:44;;;;;;;;;;;;;;;;;;1029485;28;19918;-75
2022/07/28 03:12:14;;;;;;;;;;;;;;;;;;1029254;28;19916;-75
2022/07/28 03:12:45;;;;;;;;;;;;;;;;;;1034043;28;19921;-75
2022/07/28 03:13:16;;;;;;;;;;;;;;;;;;1031638;28;19909;-74
2022/07/28 03:13:46;;;;;;;;;;;;;;;;;;1031975;28;19924;-76
2022/07/28 03:14:16;;;;;;;;;;;;;;;;;;1031838;28;19924;-74
2022/07/28 03:14:47;;;;;;;;;;;;;;;;;;1031819;28;19914;-75
2022/07/28 03:15:18;;;;;;;;;;;;;;;;;;1029823;28;20061;-75
2022/07/28 03:15:48;;;;;;;;;;;;;;;;;;1014475;28;20346;-74
2022/07/28 03:16:18;;;;;;;;;;;;;;;;;;1023112;28;19910;-74
2022/07/28 03:16:49;;;;;;;;;;;;;;;;;;1023565;29;19910;-75
2022/07/28 03:17:19;;;;;;;;;;;;;;;;;;1026567;28;19921;-76
2022/07/28 03:17:50;;;;;;;;;;;;;;;;;;1025024;28;19918;-74
2022/07/28 03:18:20;;;;;;;;;;;;;;;;;;1030443;28;19910;-73
2022/07/28 03:18:51;;;;;;;;;;;;;;;;;;1024518;28;19917;-75
2022/07/28 03:19:21;;;;;;;;;;;;;;;;;;1025371;28;19913;-74
2022/07/28 03:19:52;;;;;;;;;;;;;;;;;;1028737;28;19972;-75
2022/07/28 03:20:23;;;;;;;;;;;;;;;;;;1029599;28;19914;-75
2022/07/28 03:20:53;;;;;;;;;;;;;;;;;;1031982;28;20004;-76
2022/07/28 03:21:23;;;;;;;;;;;;;;;;;;1028354;28;19964;-76
2022/07/28 03:21:54;;;;;;;;;;;;;;;;;;1027977;28;20113;-74
2022/07/28 03:22:24;;;;;;;;;;;;;;;;;;1024595;28;20370;-75
2022/07/28 03:22:54;;;;;;;;;;;;;;;;;;1024283;28;19969;-73
2022/07/28 03:23:25;;;;;;;;;;;;;;;;;;1027152;28;20337;-75
2022/07/28 03:23:55;;;;;;;;;;;;;;;;;;1028196;28;19953;-75
2022/07/28 03:24:25;;;;;;;;;;;;;;;;;;1036280;28;19914;-74
2022/07/28 03:24:56;;;;;;;;;;;;;;;;;;1033028;28;20634;-75
2022/07/28 03:25:26;;;;;;;;;;;;;;;;;;1033122;28;20398;-75
2022/07/28 03:25:57;;;;;;;;;;;;;;;;;;1029951;28;20015;-75
2022/07/28 03:26:27;;;;;;;;;;;;;;;;;;1031665;28;19909;-74
2022/07/28 03:26:58;;;;;;;;;;;;;;;;;;1033235;28;19914;-74
2022/07/28 03:27:29;;;;;;;;;;;;;;;;;;1029409;28;19913;-74
2022/07/28 03:28:00;;;;;;;;;;;;;;;;;;1030809;28;19913;-75
2022/07/28 03:28:30;;;;;;;;;;;;;;;;;;1023938;28;19909;-74
2022/07/28 03:29:00;;;;;;;;;;;;;;;;;;1029555;28;19926;-75
2022/07/28 03:29:31;;;;;;;;;;;;;;;;;;1029490;28;19910;-75
2022/07/28 03:30:01;;;;;;;;;;;;;;;;;;1028610;28;19981;-76